Time;durP1;ratioP1;P1;durP2;ratioP2;P2;SDS_P1;SDS_P2;PMS_P1;PMS_P2;Temp;Humidity;BMP_temperature;BMP_pressure;BME280_temperature;BME280_humidity;BME280_pressure;Samples;Min_cycle;Max_cycle;Signal;HPM_P1;HPM_P2
2022/05/26 00:01:39;;;;;;;;;;;;;;;12.84;63.16;99250.81;4920885;29;1688;-96
2022/05/26 00:04:06;;;;;;;;;;;;;;;12.82;63.28;99247.56;4919218;29;1615;-96
2022/05/26 00:06:32;;;;;;;;;;;;;;;12.82;63.38;99245.66;4920752;29;1911;-96
2022/05/26 00:08:58;;;;;;;;;;;;;;;12.82;63.17;99251.06;4906094;29;1717;-96
2022/05/26 00:11:25;;;;;;;;;;;;;;;12.80;63.13;99239.72;4915258;29;1416;-96
2022/05/26 00:13:52;;;;;;;;;;;;;;;12.81;63.31;99237.84;4922251;29;1840;-96
2022/05/26 00:16:19;;;;;;;;;;;;;;;12.81;63.28;99235.13;4926960;29;1412;-96
2022/05/26 00:18:45;;;;;;;;;;;;;;;12.80;63.14;99225.41;4936498;29;1662;-96
2022/05/26 00:21:12;;;;;;;;;;;;;;;12.80;63.23;99222.72;4940355;29;1953;-96
2022/05/26 00:23:38;;;;;;;;;;;;;;;12.79;63.27;99216.47;4923921;29;2097;-96
2022/05/26 00:26:05;;;;;;;;;;;;;;;12.79;63.25;99210.25;4918027;29;1972;-96
2022/05/26 00:28:32;;;;;;;;;;;;;;;12.78;62.98;99201.34;4936469;29;1780;-96
2022/05/26 00:30:59;;;;;;;;;;;;;;;12.77;63.13;99197.03;4931328;29;1267;-96
2022/05/26 00:33:26;;;;;;;;;;;;;;;12.77;63.25;99188.13;4938110;29;1528;-96
2022/05/26 00:35:52;;;;;;;;;;;;;;;12.77;62.94;99197.03;4926058;29;1821;-96
2022/05/26 00:38:18;;;;;;;;;;;;;;;12.76;63.08;99187.28;4923738;29;1812;-96
2022/05/26 00:40:45;;;;;;;;;;;;;;;12.76;63.19;99190.00;4915196;29;1534;-96
2022/05/26 00:43:12;;;;;;;;;;;;;;;12.75;63.06;99182.16;4921933;29;1656;-96
2022/05/26 00:45:38;;;;;;;;;;;;;;;12.75;62.91;99171.38;4912587;29;2007;-95
2022/05/26 00:48:05;;;;;;;;;;;;;;;12.73;63.15;99161.66;4920308;29;2136;-96
2022/05/26 00:50:31;;;;;;;;;;;;;;;12.73;63.08;99172.44;4925440;29;1610;-96
2022/05/26 00:52:58;;;;;;;;;;;;;;;12.72;63.03;99176.22;4928804;29;1725;-96
2022/05/26 00:55:24;;;;;;;;;;;;;;;12.72;63.21;99184.31;4933253;29;1529;-95
2022/05/26 00:57:51;;;;;;;;;;;;;;;12.73;62.99;99171.63;4926426;29;1652;-96
2022/05/26 01:00:17;;;;;;;;;;;;;;;12.71;62.87;99168.38;4924035;29;1798;-96
2022/05/26 01:02:44;;;;;;;;;;;;;;;12.71;62.95;99162.97;4926737;29;1786;-96
2022/05/26 01:05:10;;;;;;;;;;;;;;;12.72;63.14;99161.91;4926709;29;2041;-96
2022/05/26 01:07:37;;;;;;;;;;;;;;;12.71;62.97;99157.59;4916364;29;1604;-96
2022/05/26 01:10:04;;;;;;;;;;;;;;;12.70;63.06;99159.44;4927197;29;1151;-96
2022/05/26 01:12:30;;;;;;;;;;;;;;;12.69;63.16;99155.13;4919073;29;2022;-96
2022/05/26 01:14:57;;;;;;;;;;;;;;;12.68;63.07;99150.81;4914364;29;1736;-96
2022/05/26 01:17:23;;;;;;;;;;;;;;;12.68;63.07;99142.72;4908040;29;1241;-96
2022/05/26 01:19:50;;;;;;;;;;;;;;;12.67;63.04;99135.69;4907913;29;1231;-96
2022/05/26 01:22:16;;;;;;;;;;;;;;;12.67;62.94;99138.38;4935682;29;1544;-96
2022/05/26 01:24:43;;;;;;;;;;;;;;;12.68;62.87;99144.63;4926585;29;1982;-96
2022/05/26 01:27:10;;;;;;;;;;;;;;;12.67;62.98;99137.56;4924121;29;1347;-96
2022/05/26 01:29:36;;;;;;;;;;;;;;;12.66;62.89;99134.06;4917376;29;2063;-96
2022/05/26 01:32:03;;;;;;;;;;;;;;;12.65;62.94;99137.84;4933799;29;1538;-96
2022/05/26 01:34:29;;;;;;;;;;;;;;;12.65;62.75;99148.66;4909146;29;1511;-96
2022/05/26 01:36:56;;;;;;;;;;;;;;;12.64;63.00;99144.31;4916378;29;1631;-96
2022/05/26 01:39:22;;;;;;;;;;;;;;;12.64;63.04;99146.22;4909978;29;1707;-96
2022/05/26 01:41:49;;;;;;;;;;;;;;;12.63;62.72;99142.69;4923399;29;1947;-96
2022/05/26 01:44:15;;;;;;;;;;;;;;;12.64;63.02;99132.69;4916411;29;2116;-96
2022/05/26 01:46:42;;;;;;;;;;;;;;;12.61;62.92;99130.53;4921541;29;1902;-96
2022/05/26 01:49:08;;;;;;;;;;;;;;;12.62;62.87;99129.47;4923688;29;1537;-96
2022/05/26 01:51:35;;;;;;;;;;;;;;;12.61;63.05;99122.44;4913514;29;1706;-96
2022/05/26 01:54:01;;;;;;;;;;;;;;;12.60;62.86;99118.94;4911238;29;1761;-96
2022/05/26 01:56:28;;;;;;;;;;;;;;;12.61;62.76;99120.53;4911018;29;1593;-96
2022/05/26 01:58:55;;;;;;;;;;;;;;;12.60;62.74;99112.72;4905816;29;1578;-96
2022/05/26 02:01:22;;;;;;;;;;;;;;;12.60;63.03;99110.03;4914064;29;1787;-95
2022/05/26 02:03:48;;;;;;;;;;;;;;;12.59;62.85;99114.63;4933645;29;1726;-96
2022/05/26 02:06:15;;;;;;;;;;;;;;;12.59;62.86;99103.81;4938694;29;1978;-96
2022/05/26 02:08:42;;;;;;;;;;;;;;;12.59;62.73;99114.63;4921446;29;1554;-96
2022/05/26 02:11:08;;;;;;;;;;;;;;;12.59;62.79;99095.72;4910723;29;1990;-96
2022/05/26 02:13:35;;;;;;;;;;;;;;;12.59;62.80;99102.97;4919310;29;1737;-96
2022/05/26 02:16:01;;;;;;;;;;;;;;;12.59;62.77;99102.97;4908847;29;1828;-96
2022/05/26 02:18:28;;;;;;;;;;;;;;;12.59;62.67;99094.88;4923372;29;1534;-96
2022/05/26 02:20:54;;;;;;;;;;;;;;;12.59;62.82;99097.56;4922247;29;1723;-96
2022/05/26 02:23:23;;;;;;;;;;;;;;;12.58;62.84;99098.66;4935673;29;1842;-96
2022/05/26 02:25:50;;;;;;;;;;;;;;;12.57;62.68;99097.84;4933413;29;1902;-96
2022/05/26 02:28:16;;;;;;;;;;;;;;;12.57;62.71;99091.66;4909067;29;1592;-96
2022/05/26 02:30:42;;;;;;;;;;;;;;;12.58;62.65;99087.88;4923012;29;1527;-96
2022/05/26 02:33:08;;;;;;;;;;;;;;;12.57;62.83;99087.06;4913905;29;1963;-96
2022/05/26 02:35:35;;;;;;;;;;;;;;;12.56;62.72;99090.84;4921639;29;1566;-96
2022/05/26 02:38:02;;;;;;;;;;;;;;;12.56;62.63;99077.34;4923131;29;1774;-96
2022/05/26 02:40:28;;;;;;;;;;;;;;;12.56;62.63;99085.44;4923701;29;1238;-96
2022/05/26 02:42:55;;;;;;;;;;;;;;;12.56;62.71;99085.44;4917603;29;1712;-96
2022/05/26 02:45:21;;;;;;;;;;;;;;;12.56;62.61;99076.50;4919260;29;1922;-96
2022/05/26 02:47:48;;;;;;;;;;;;;;;12.55;62.72;99074.91;4921223;29;1483;-96
2022/05/26 02:50:15;;;;;;;;;;;;;;;12.54;62.50;99070.59;4922974;29;1367;-96
2022/05/26 02:52:42;;;;;;;;;;;;;;;12.54;62.53;99062.50;4921700;29;1690;-96
2022/05/26 02:55:08;;;;;;;;;;;;;;;12.52;62.60;99056.53;4923659;29;1213;-96
2022/05/26 02:57:35;;;;;;;;;;;;;;;12.52;62.68;99054.63;4922459;29;1250;-96
2022/05/26 03:00:02;;;;;;;;;;;;;;;12.51;62.63;99044.94;4922498;29;1257;-96
2022/05/26 03:02:28;;;;;;;;;;;;;;;12.50;62.70;99037.91;4922228;29;1320;-96
2022/05/26 03:04:55;;;;;;;;;;;;;;;12.50;62.54;99046.81;4921410;29;1718;-96
2022/05/26 03:07:21;;;;;;;;;;;;;;;12.48;62.68;99026.56;4921706;29;1960;-96
2022/05/26 03:09:48;;;;;;;;;;;;;;;12.47;62.67;99031.16;4936319;29;1651;-96
2022/05/26 03:12:14;;;;;;;;;;;;;;;12.48;62.62;99024.66;4955068;29;1343;-96
2022/05/26 03:14:41;;;;;;;;;;;;;;;12.46;62.69;99017.91;4954464;29;1275;-96
2022/05/26 03:17:07;;;;;;;;;;;;;;;12.46;62.55;99013.31;4954647;29;1201;-96
2022/05/26 03:19:34;;;;;;;;;;;;;;;12.45;62.66;99003.59;4948881;29;1789;-96
2022/05/26 03:22:01;;;;;;;;;;;;;;;12.45;62.64;98995.50;4923353;29;1327;-96
2022/05/26 03:24:27;;;;;;;;;;;;;;;12.45;62.50;98994.69;4923343;29;1239;-96
2022/05/26 03:26:54;;;;;;;;;;;;;;;12.44;62.44;98988.50;4923434;29;1933;-96
2022/05/26 03:29:20;;;;;;;;;;;;;;;12.43;62.71;98981.47;4920910;29;1453;-96
2022/05/26 03:31:47;;;;;;;;;;;;;;;12.45;62.49;98978.50;4922101;29;1428;-96
2022/05/26 03:42:26;;;;;;;;;;;;;;;12.42;62.47;98962.84;4923505;29;1382;-96
2022/05/26 03:44:53;;;;;;;;;;;;;;;12.41;62.42;98953.94;4911988;29;1497;-96
2022/05/26 03:47:19;;;;;;;;;;;;;;;12.41;62.33;98943.13;4922029;29;1907;-96
2022/05/26 03:49:46;;;;;;;;;;;;;;;12.42;62.34;98941.25;4920925;29;1620;-96
2022/05/26 03:52:12;;;;;;;;;;;;;;;12.40;62.35;98941.50;4921758;29;1264;-96
2022/05/26 03:54:39;;;;;;;;;;;;;;;12.40;62.38;98922.59;4918539;29;1372;-96
2022/05/26 03:57:06;;;;;;;;;;;;;;;12.39;62.58;98923.69;4902764;29;1219;-96
2022/05/26 03:59:33;;;;;;;;;;;;;;;12.39;62.48;98909.38;4904152;29;1904;-96
2022/05/26 04:01:59;;;;;;;;;;;;;;;12.38;62.47;98907.75;4920412;29;2284;-96
2022/05/26 04:04:26;;;;;;;;;;;;;;;12.38;62.55;98902.34;4920118;29;1777;-96
2022/05/26 04:06:52;;;;;;;;;;;;;;;12.37;62.46;98898.84;4921535;29;1976;-96
2022/05/26 04:09:19;;;;;;;;;;;;;;;12.37;62.41;98903.44;4921569;29;1297;-96
2022/05/26 04:11:46;;;;;;;;;;;;;;;12.36;62.49;98899.94;4921269;29;1383;-96
2022/05/26 04:14:12;;;;;;;;;;;;;;;12.36;62.51;98888.34;4908071;29;1531;-96
2022/05/26 04:16:39;;;;;;;;;;;;;;;12.35;62.25;98884.00;4917326;29;1810;-96
2022/05/26 04:19:05;;;;;;;;;;;;;;;12.34;62.46;98883.19;4921466;29;1646;-94
2022/05/26 04:21:32;;;;;;;;;;;;;;;12.34;62.49;98877.78;4917460;29;1415;-95
2022/05/26 04:23:58;;;;;;;;;;;;;;;12.34;62.35;98879.69;4902283;29;1171;-96
2022/05/26 04:26:25;;;;;;;;;;;;;;;12.34;62.20;98867.00;4902397;29;1919;-95
2022/05/26 04:28:51;;;;;;;;;;;;;;;12.33;62.44;98875.38;4930020;29;1424;-96
2022/05/26 04:31:18;;;;;;;;;;;;;;;12.33;62.47;98864.59;4920179;29;1620;-94
2022/05/26 04:33:45;;;;;;;;;;;;;;;12.31;62.43;98870.25;4921940;29;1556;-96
2022/05/26 04:36:11;;;;;;;;;;;;;;;12.32;62.27;98884.53;4935485;29;1699;-96
2022/05/26 04:38:38;;;;;;;;;;;;;;;12.31;62.47;98880.22;4920929;29;1325;-96
2022/05/26 04:41:04;;;;;;;;;;;;;;;12.32;62.48;98881.84;4919661;29;1755;-96
2022/05/26 04:43:32;;;;;;;;;;;;;;;12.30;62.42;98876.72;4914555;29;1611;-96
2022/05/26 04:45:58;;;;;;;;;;;;;;;12.30;62.45;98871.34;4920854;29;1899;-96
2022/05/26 04:48:25;;;;;;;;;;;;;;;12.29;62.43;98880.50;4920820;29;1202;-96
2022/05/26 04:50:51;;;;;;;;;;;;;;;12.31;62.66;98882.94;4914704;29;1522;-95
2022/05/26 04:53:18;;;;;;;;;;;;;;;12.28;62.32;98868.88;4902387;29;1530;-96
2022/05/26 04:55:44;;;;;;;;;;;;;;;12.30;62.30;98878.63;4913795;29;1379;-96
2022/05/26 04:58:11;;;;;;;;;;;;;;;12.28;62.28;98868.09;4920714;29;1287;-96
2022/05/26 05:00:37;;;;;;;;;;;;;;;12.27;62.44;98864.59;4920620;29;1423;-96
2022/05/26 05:03:04;;;;;;;;;;;;;;;12.26;62.30;98868.38;4924404;29;1199;-96
2022/05/26 05:05:30;;;;;;;;;;;;;;;12.25;62.46;98863.22;4923649;29;1601;-96
2022/05/26 05:07:57;;;;;;;;;;;;;;;12.25;62.32;98872.13;4924334;29;1919;-96
2022/05/26 05:10:23;;;;;;;;;;;;;;;12.25;62.45;98868.63;4920994;29;1572;-96
2022/05/26 05:12:50;;;;;;;;;;;;;;;12.25;62.41;98868.63;4924543;29;1415;-96
2022/05/26 05:15:16;;;;;;;;;;;;;;;12.23;62.39;98863.50;4924239;29;1627;-96
2022/05/26 05:17:44;;;;;;;;;;;;;;;12.23;62.38;98865.38;4913378;29;1319;-96
2022/05/26 05:20:10;;;;;;;;;;;;;;;12.23;62.33;98876.19;4921901;29;1697;-96
2022/05/26 05:22:37;;;;;;;;;;;;;;;12.20;62.34;98857.84;4932708;29;1288;-96
2022/05/26 05:25:08;;;;;;;;;;;;;;;12.21;62.32;98862.97;4925107;29;1567;-96
2022/05/26 05:27:34;;;;;;;;;;;;;;;12.21;62.38;98871.06;4923938;29;1914;-96
2022/05/26 05:30:04;;;;;;;;;;;;;;;12.21;62.14;98862.97;4922202;29;1565;-96
2022/05/26 05:32:31;;;;;;;;;;;;;;;12.20;62.33;98861.34;4924310;29;1222;-96
2022/05/26 05:34:59;;;;;;;;;;;;;;;12.19;62.19;98859.72;4917186;29;1671;-96
2022/05/26 05:37:26;;;;;;;;;;;;;;;12.20;62.32;98861.34;4923694;29;1183;-96
2022/05/26 05:39:52;;;;;;;;;;;;;;;12.19;62.34;98862.41;4923651;29;1289;-95
2022/05/26 05:42:21;;;;;;;;;;;;;;;12.19;62.36;98870.53;4913827;29;1783;-96
2022/05/26 05:44:48;;;;;;;;;;;;;;;12.18;62.14;98866.22;4939460;29;1283;-96
2022/05/26 05:47:14;;;;;;;;;;;;;;;12.16;62.34;98864.88;4923444;29;1907;-96
2022/05/26 05:49:41;;;;;;;;;;;;;;;12.17;62.36;98869.97;4912065;29;1650;-96
2022/05/26 05:52:07;;;;;;;;;;;;;;;12.17;62.28;98877.25;4905612;29;1336;-96
2022/05/26 05:54:34;;;;;;;;;;;;;;;12.17;62.09;98875.38;4926425;29;1217;-96
2022/05/26 05:57:00;;;;;;;;;;;;;;;12.15;62.27;98879.44;4923601;29;1170;-96
2022/05/26 05:59:27;;;;;;;;;;;;;;;12.16;62.17;98886.44;4923611;29;1262;-96
2022/05/26 06:01:54;;;;;;;;;;;;;;;12.13;62.35;98887.78;4922433;29;1628;-96
2022/05/26 06:04:21;;;;;;;;;;;;;;;12.11;62.44;98881.84;4921313;29;1754;-96
2022/05/26 06:06:47;;;;;;;;;;;;;;;12.13;62.34;98878.91;4924171;29;1982;-96
2022/05/26 06:09:15;;;;;;;;;;;;;;;12.12;62.29;98883.50;4923696;29;1521;-96
2022/05/26 06:11:42;;;;;;;;;;;;;;;12.13;62.32;98887.78;4923461;29;1187;-96
2022/05/26 06:14:08;;;;;;;;;;;;;;;12.14;62.25;98884.00;4922281;29;1298;-96
2022/05/26 06:16:35;;;;;;;;;;;;;;;12.12;62.29;98888.06;4915830;29;1684;-96
2022/05/26 06:19:02;;;;;;;;;;;;;;;12.11;62.30;98889.16;4921842;29;1575;-96
2022/05/26 06:21:28;;;;;;;;;;;;;;;12.09;62.22;98889.44;4922845;29;1544;-96
2022/05/26 06:23:56;;;;;;;;;;;;;;;12.09;62.30;98892.13;4922885;29;1297;-96
2022/05/26 06:26:23;;;;;;;;;;;;;;;12.10;62.33;98892.94;4922819;29;2002;-96
2022/05/26 06:31:34;;;;;;;;;;;;;;;12.09;62.29;98889.44;4911274;29;1572;-96
2022/05/26 06:39:29;;;;;;;;;;;;;;;12.07;62.29;98898.88;4913304;29;1372;-96
2022/05/26 06:42:09;;;;;;;;;;;;;;;12.05;62.11;98889.13;4907468;29;1576;-96
2022/05/26 06:44:37;;;;;;;;;;;;;;;12.07;62.18;98906.97;4914052;29;1722;-95
2022/05/26 06:47:04;;;;;;;;;;;;;;;12.05;62.30;98899.94;4920516;29;1915;-95
2022/05/26 06:49:31;;;;;;;;;;;;;;;12.02;62.22;98903.16;4920696;29;1639;-96
2022/05/26 06:51:57;;;;;;;;;;;;;;;12.04;62.27;98908.31;4922269;29;1278;-96
2022/05/26 06:54:25;;;;;;;;;;;;;;;12.04;62.25;98905.59;4922784;29;1403;-96
2022/05/26 06:56:51;;;;;;;;;;;;;;;12.04;62.26;98911.81;4922961;29;1262;-96
2022/05/26 06:59:18;;;;;;;;;;;;;;;12.03;62.10;98915.59;4920018;29;1759;-95
2022/05/26 07:01:44;;;;;;;;;;;;;;;12.03;62.12;98912.09;4917521;29;2091;-95
2022/05/26 07:04:10;;;;;;;;;;;;;;;12.05;62.23;98915.31;4921586;29;1791;-96
2022/05/26 07:06:40;;;;;;;;;;;;;;;12.05;62.37;98918.00;4922501;29;1980;-95
2022/05/26 07:09:07;;;;;;;;;;;;;;;12.04;62.31;98919.09;4922268;29;1207;-96
2022/05/26 07:11:33;;;;;;;;;;;;;;;12.04;62.23;98922.59;4923885;29;1530;-96
2022/05/26 07:14:00;;;;;;;;;;;;;;;12.05;62.43;98923.41;4922808;29;1749;-96
2022/05/26 07:16:26;;;;;;;;;;;;;;;12.06;62.26;98930.44;4923399;29;1302;-96
2022/05/26 07:18:55;;;;;;;;;;;;;;;12.04;62.43;98936.09;4921810;29;1611;-96
2022/05/26 07:21:22;;;;;;;;;;;;;;;12.05;62.28;98932.31;4922485;29;1321;-96
2022/05/26 07:23:48;;;;;;;;;;;;;;;12.04;62.53;98936.09;4922686;29;1310;-96
2022/05/26 07:26:16;;;;;;;;;;;;;;;12.04;62.19;98949.59;4921638;29;1289;-96
2022/05/26 07:28:44;;;;;;;;;;;;;;;12.04;62.14;98944.19;4918591;29;1780;-96
2022/05/26 07:31:11;;;;;;;;;;;;;;;12.04;62.28;98949.59;4904745;29;1705;-96
2022/05/26 07:33:38;;;;;;;;;;;;;;;12.04;62.18;98959.56;4922062;29;1513;-96
2022/05/26 07:36:04;;;;;;;;;;;;;;;12.03;62.35;98958.78;4922202;29;1302;-96
2022/05/26 07:41:18;;;;;;;;;;;;;;;12.04;62.32;98964.97;4920381;29;1578;-96
2022/05/26 07:43:46;;;;;;;;;;;;;;;12.04;62.33;98971.16;4916680;29;1390;-96
2022/05/26 07:46:12;;;;;;;;;;;;;;;12.05;62.19;98966.59;4920711;29;1577;-96
2022/05/26 07:48:39;;;;;;;;;;;;;;;12.05;62.21;98978.19;4921288;29;1906;-96
2022/05/26 07:51:05;;;;;;;;;;;;;;;12.05;62.28;98980.06;4921360;29;1466;-95
2022/05/26 07:53:32;;;;;;;;;;;;;;;12.04;62.47;98987.38;4921479;29;1191;-96
2022/05/26 07:56:01;;;;;;;;;;;;;;;12.04;62.02;98981.16;4921315;29;2124;-96
2022/05/26 07:58:27;;;;;;;;;;;;;;;12.05;62.14;98988.16;4921484;29;1588;-96
2022/05/26 08:00:54;;;;;;;;;;;;;;;12.06;62.10;98989.81;4921000;29;1622;-96
2022/05/26 08:03:21;;;;;;;;;;;;;;;12.05;62.19;98991.66;4935564;29;1876;-96
2022/05/26 08:05:47;;;;;;;;;;;;;;;12.06;62.33;99006.00;4921643;29;1173;-96
2022/05/26 08:08:14;;;;;;;;;;;;;;;12.08;62.46;99000.31;4907971;29;1988;-96
2022/05/26 08:10:40;;;;;;;;;;;;;;;12.07;62.00;99007.59;4919300;29;958;-96
2022/05/26 08:13:07;;;;;;;;;;;;;;;12.07;62.30;99012.19;4943269;29;1607;-96
2022/05/26 08:15:34;;;;;;;;;;;;;;;12.07;62.31;99010.31;4953258;29;1186;-96
2022/05/26 08:18:00;;;;;;;;;;;;;;;12.08;62.39;99017.31;4939722;29;1619;-96
2022/05/26 08:20:27;;;;;;;;;;;;;;;12.10;62.25;99022.47;4921782;29;1406;-96
2022/05/26 08:22:53;;;;;;;;;;;;;;;12.10;62.21;99019.75;4921687;29;1214;-96
2022/05/26 08:25:20;;;;;;;;;;;;;;;12.10;62.08;99025.97;4919896;29;1485;-96
2022/05/26 08:27:46;;;;;;;;;;;;;;;12.11;62.05;99038.38;4912307;29;1977;-96
2022/05/26 08:30:13;;;;;;;;;;;;;;;12.10;62.06;99039.47;4919052;29;1755;-96
2022/05/26 08:32:41;;;;;;;;;;;;;;;12.11;62.20;99043.78;4902263;29;1302;-96
2022/05/26 08:35:08;;;;;;;;;;;;;;;12.11;62.40;99038.38;4902603;29;1210;-96
2022/05/26 08:37:34;;;;;;;;;;;;;;;12.12;62.61;99042.72;4905632;29;1313;-93
2022/05/26 08:40:01;;;;;;;;;;;;;;;12.12;62.26;99049.97;4905943;29;1300;-95
2022/05/26 08:42:27;;;;;;;;;;;;;;;12.13;62.19;99048.91;4906400;29;1327;-95
2022/05/26 08:44:55;;;;;;;;;;;;;;;12.12;62.21;99047.28;4907574;29;1630;-96
2022/05/26 08:47:21;;;;;;;;;;;;;;;12.13;62.37;99051.63;4924232;29;2010;-96
2022/05/26 08:49:48;;;;;;;;;;;;;;;12.12;62.26;99053.50;4936731;29;1595;-96
2022/05/26 08:52:14;;;;;;;;;;;;;;;12.13;62.18;99054.31;4940197;29;1296;-96
2022/05/26 08:54:41;;;;;;;;;;;;;;;12.13;62.28;99057.81;4924541;29;1189;-96
2022/05/26 08:57:07;;;;;;;;;;;;;;;12.14;62.37;99066.72;4910007;29;1516;-96
2022/05/26 08:59:34;;;;;;;;;;;;;;;12.15;62.13;99065.66;4921622;29;1305;-93
2022/05/26 09:02:00;;;;;;;;;;;;;;;12.14;62.26;99062.13;4922821;29;1706;-96
2022/05/26 09:04:27;;;;;;;;;;;;;;;12.14;62.16;99083.72;4924416;29;1245;-96
2022/05/26 09:15:06;;;;;;;;;;;;;;;12.15;62.14;99084.56;4948617;29;1887;-92
2022/05/26 09:17:35;;;;;;;;;;;;;;;12.15;62.39;99088.06;4917306;29;1554;-95
2022/05/26 09:20:05;;;;;;;;;;;;;;;12.15;61.96;99087.25;4921913;29;1215;-96
2022/05/26 09:22:31;;;;;;;;;;;;;;;12.15;62.22;99088.06;4921052;29;1175;-96
2022/05/26 09:24:58;;;;;;;;;;;;;;;12.16;62.30;99096.97;4921257;29;1688;-92
2022/05/26 09:27:25;;;;;;;;;;;;;;;12.16;62.34;99095.06;4925401;29;1976;-95
2022/05/26 09:29:51;;;;;;;;;;;;;;;12.16;62.39;99094.25;4910073;29;1543;-95
2022/05/26 09:32:18;;;;;;;;;;;;;;;12.16;62.44;99105.06;4924076;29;1232;-93
2022/05/26 09:34:45;;;;;;;;;;;;;;;12.16;62.45;99100.47;4923975;29;1227;-93
2022/05/26 09:37:11;;;;;;;;;;;;;;;12.17;62.24;99109.38;4930650;29;1585;-96
2022/05/26 09:39:38;;;;;;;;;;;;;;;12.17;62.38;99106.66;4926634;29;1199;-93
2022/05/26 09:42:06;;;;;;;;;;;;;;;12.17;62.42;99115.56;4922582;29;2015;-96
2022/05/26 09:44:33;;;;;;;;;;;;;;;12.17;62.45;99114.75;4922515;29;1762;-94
2022/05/26 09:46:59;;;;;;;;;;;;;;;12.18;62.36;99124.50;4924680;29;1907;-96
2022/05/26 09:49:26;;;;;;;;;;;;;;;12.18;62.33;99119.09;4941570;29;1195;-96
2022/05/26 09:51:52;;;;;;;;;;;;;;;12.17;62.33;99115.56;4942847;29;1400;-96
2022/05/26 09:54:19;;;;;;;;;;;;;;;12.18;62.46;99129.91;4935276;29;1374;-94
2022/05/26 09:56:45;;;;;;;;;;;;;;;12.17;62.27;99129.06;4917062;29;1741;-95
2022/05/26 09:59:12;;;;;;;;;;;;;;;12.17;62.43;99134.47;4920346;29;2076;-95
2022/05/26 10:01:38;;;;;;;;;;;;;;;12.17;62.31;99136.34;4918627;29;1603;-96
2022/05/26 10:04:05;;;;;;;;;;;;;;;12.18;62.41;99135.31;4923431;29;1332;-93
2022/05/26 10:06:32;;;;;;;;;;;;;;;12.17;62.32;99134.47;4923080;29;1359;-96
2022/05/26 10:08:58;;;;;;;;;;;;;;;12.18;62.27;99132.59;4923107;29;1919;-96
2022/05/26 10:11:25;;;;;;;;;;;;;;;12.18;62.23;99133.41;4922389;29;1534;-95
2022/05/26 10:13:51;;;;;;;;;;;;;;;12.19;62.33;99139.59;4923251;29;1332;-96
2022/05/26 10:16:18;;;;;;;;;;;;;;;12.19;62.29;99136.91;4921711;29;1668;-96
2022/05/26 10:18:44;;;;;;;;;;;;;;;12.19;62.46;99140.41;4923046;29;1238;-96
2022/05/26 10:21:11;;;;;;;;;;;;;;;12.19;62.51;99145.00;4914551;29;1747;-96
2022/05/26 10:23:37;;;;;;;;;;;;;;;12.20;62.46;99143.94;4922947;29;1514;-95
2022/05/26 10:26:04;;;;;;;;;;;;;;;12.20;62.32;99149.31;4923803;29;1452;-96
2022/05/26 10:28:32;;;;;;;;;;;;;;;12.19;62.56;99145.81;4921674;29;2023;-93
2022/05/26 10:30:59;;;;;;;;;;;;;;;12.20;62.56;99149.31;4920281;29;2020;-93
2022/05/26 10:33:26;;;;;;;;;;;;;;;12.21;62.56;99154.47;4922886;29;1193;-93
2022/05/26 10:35:53;;;;;;;;;;;;;;;12.21;62.53;99156.38;4922818;29;1577;-95
2022/05/26 10:38:19;;;;;;;;;;;;;;;12.20;62.59;99157.41;4922817;29;1324;-95
2022/05/26 10:40:46;;;;;;;;;;;;;;;12.21;62.60;99165.28;4923488;29;1335;-96
2022/05/26 10:43:12;;;;;;;;;;;;;;;12.22;62.29;99163.38;4921939;29;1647;-93
2022/05/26 10:45:39;;;;;;;;;;;;;;;12.22;62.45;99160.69;4922172;29;1701;-93
2022/05/26 10:48:05;;;;;;;;;;;;;;;12.22;62.34;99160.69;4925113;29;1980;-96
2022/05/26 10:50:32;;;;;;;;;;;;;;;12.22;62.59;99150.69;4916725;29;1730;-94
2022/05/26 10:52:59;;;;;;;;;;;;;;;12.23;62.51;99156.88;4920438;29;1376;-95
2022/05/26 10:55:26;;;;;;;;;;;;;;;12.22;62.43;99153.38;4923072;29;1589;-95
2022/05/26 10:57:52;;;;;;;;;;;;;;;12.23;62.58;99152.28;4921502;29;1683;-95
2022/05/26 11:00:19;;;;;;;;;;;;;;;12.24;62.45;99155.84;4937887;29;2070;-95
2022/05/26 11:02:45;;;;;;;;;;;;;;;12.25;62.58;99157.44;4920028;29;1635;-95
2022/05/26 11:05:13;;;;;;;;;;;;;;;12.24;62.57;99164.75;4922167;29;1604;-95
2022/05/26 11:07:39;;;;;;;;;;;;;;;12.24;62.60;99153.13;4922336;29;1974;-95
2022/05/26 11:10:05;;;;;;;;;;;;;;;12.26;62.61;99159.06;4921483;29;1684;-92
2022/05/26 11:12:32;;;;;;;;;;;;;;;12.25;62.73;99163.66;4921996;29;1305;-95
2022/05/26 11:17:49;;;;;;;;;;;;;;;12.27;62.64;99158.00;4886331;29;1696;-95
2022/05/26 11:20:16;;;;;;;;;;;;;;;12.27;62.69;99158.81;4915614;29;1597;-96
2022/05/26 11:22:45;;;;;;;;;;;;;;;12.28;62.73;99162.31;4918920;29;1351;-95
2022/05/26 11:25:11;;;;;;;;;;;;;;;12.28;62.68;99156.91;4919012;29;1635;-95
2022/05/26 11:27:38;;;;;;;;;;;;;;;12.29;62.64;99166.63;4921656;29;1981;-95
2022/05/26 11:30:04;;;;;;;;;;;;;;;12.30;62.59;99168.28;4918763;29;1668;-90
2022/05/26 11:37:59;;;;;;;;;;;;;;;12.31;62.86;99164.47;4918626;29;1811;-95
2022/05/26 11:40:26;;;;;;;;;;;;;;;12.31;62.54;99153.69;4921581;29;1190;-96
2022/05/26 11:42:53;;;;;;;;;;;;;;;12.33;62.82;99158.84;4921504;29;1377;-95
2022/05/26 11:45:19;;;;;;;;;;;;;;;12.33;62.69;99153.44;4918053;29;1629;-95
2022/05/26 11:47:46;;;;;;;;;;;;;;;12.33;62.68;99151.53;4920256;29;2122;-96
2022/05/26 11:50:12;;;;;;;;;;;;;;;12.34;62.86;99155.84;4916640;29;1684;-95
2022/05/26 11:52:39;;;;;;;;;;;;;;;12.36;62.71;99158.31;4902588;29;1493;-95
2022/05/26 11:55:06;;;;;;;;;;;;;;;12.36;62.85;99147.50;4918013;29;1555;-95
2022/05/26 11:57:34;;;;;;;;;;;;;;;12.36;62.69;99151.00;4918188;29;1359;-96
2022/05/26 12:00:01;;;;;;;;;;;;;;;12.38;62.81;99145.34;4918119;29;1282;-95
2022/05/26 12:02:28;;;;;;;;;;;;;;;12.38;62.67;99153.44;4934547;29;1710;-93
2022/05/26 12:04:54;;;;;;;;;;;;;;;12.39;62.62;99152.38;4920193;29;1784;-95
2022/05/26 12:07:21;;;;;;;;;;;;;;;12.38;62.80;99146.16;4921227;29;1222;-96
2022/05/26 12:09:48;;;;;;;;;;;;;;;12.40;62.78;99149.38;4920940;29;1981;-94
2022/05/26 12:12:15;;;;;;;;;;;;;;;12.41;62.65;99144.81;4920158;29;1501;-95
2022/05/26 12:14:41;;;;;;;;;;;;;;;12.42;62.68;99147.25;4921366;29;1170;-94
2022/05/26 12:17:08;;;;;;;;;;;;;;;12.43;62.78;99150.75;4919950;29;1580;-95
2022/05/26 12:19:35;;;;;;;;;;;;;;;12.44;62.71;99157.75;4918190;29;1554;-95
2022/05/26 12:22:01;;;;;;;;;;;;;;;12.45;62.75;99154.00;4919405;29;1621;-95
2022/05/26 12:24:28;;;;;;;;;;;;;;;12.46;62.76;99161.03;4921730;29;1218;-95
2022/05/26 12:26:55;;;;;;;;;;;;;;;12.47;62.44;99160.78;4920684;29;1950;-95
2022/05/26 12:29:21;;;;;;;;;;;;;;;12.48;62.76;99164.28;4920722;29;1984;-95
2022/05/26 12:31:48;;;;;;;;;;;;;;;12.49;62.69;99155.09;4918706;29;1765;-95
2022/05/26 12:34:14;;;;;;;;;;;;;;;12.50;62.72;99168.34;4920919;29;1190;-95
2022/05/26 12:36:41;;;;;;;;;;;;;;;12.52;62.65;99164.56;4920938;29;1217;-95
2022/05/26 12:39:07;;;;;;;;;;;;;;;12.52;62.64;99157.25;4921134;29;1100;-95
2022/05/26 12:41:34;;;;;;;;;;;;;;;12.53;62.74;99161.59;4915525;29;1635;-95
2022/05/26 12:44:00;;;;;;;;;;;;;;;12.53;62.67;99153.50;4917746;29;1615;-95
2022/05/26 12:46:27;;;;;;;;;;;;;;;12.54;62.56;99147.00;4919445;29;1438;-95
2022/05/26 12:48:56;;;;;;;;;;;;;;;12.56;62.74;99152.13;4920766;29;1982;-95
2022/05/26 12:51:26;;;;;;;;;;;;;;;12.57;62.59;99148.38;4919156;29;1415;-95
2022/05/26 12:53:54;;;;;;;;;;;;;;;12.58;62.63;99150.78;4920676;29;1348;-95
2022/05/26 12:56:21;;;;;;;;;;;;;;;12.59;62.77;99146.19;4911860;29;1651;-95
2022/05/26 12:58:47;;;;;;;;;;;;;;;12.60;62.83;99147.84;4917899;29;1524;-95
2022/05/26 13:01:14;;;;;;;;;;;;;;;12.61;62.81;99158.34;4919788;29;1548;-95
2022/05/26 13:03:40;;;;;;;;;;;;;;;12.61;62.69;99152.94;4918729;29;1954;-95
2022/05/26 13:06:08;;;;;;;;;;;;;;;12.63;62.63;99150.81;4920702;29;1368;-95
2022/05/26 13:08:35;;;;;;;;;;;;;;;12.64;62.72;99149.72;4913735;29;1973;-95
2022/05/26 13:11:03;;;;;;;;;;;;;;;12.65;62.67;99147.84;4916897;29;1718;-95
2022/05/26 13:13:29;;;;;;;;;;;;;;;12.66;62.69;99150.28;4901556;29;1172;-94
2022/05/26 13:15:56;;;;;;;;;;;;;;;12.68;62.86;99144.63;4914673;29;1635;-94
2022/05/26 13:18:22;;;;;;;;;;;;;;;12.68;62.82;99139.22;4920420;29;1656;-95
2022/05/26 13:20:49;;;;;;;;;;;;;;;12.70;62.60;99145.94;4920378;29;1435;-95
2022/05/26 13:23:15;;;;;;;;;;;;;;;12.69;62.74;99147.03;4915190;29;1221;-95
2022/05/26 13:25:42;;;;;;;;;;;;;;;12.70;62.64;99143.25;4924212;29;1203;-94
2022/05/26 13:28:09;;;;;;;;;;;;;;;12.72;62.75;99138.41;4922853;29;1906;-95
2022/05/26 13:33:20;;;;;;;;;;;;;;;12.74;62.66;99140.84;4923237;29;1440;-95